Time;durP1;ratioP1;P1;durP2;ratioP2;P2;SDS_P1;SDS_P2;PMS_P1;PMS_P2;Temp;Humidity;BMP_temperature;BMP_pressure;BME280_temperature;BME280_humidity;BME280_pressure;Samples;Min_cycle;Max_cycle;Signal;HPM_P1;HPM_P2
2023/06/13 00:00:05;;;;;;;0.03;0.03;;;;;;;15.06;55.56;97484.72;5031165;28;20095;-71
2023/06/13 00:02:33;;;;;;;0.10;0.10;;;;;;;14.71;57.31;97493.63;5028992;28;20049;-71
2023/06/13 00:05:03;;;;;;;0.10;0.10;;;;;;;14.76;57.28;97488.38;5033717;28;20052;-71
2023/06/13 00:07:32;;;;;;;0.10;0.10;;;;;;;14.74;57.44;97488.63;5033636;28;20052;-71
2023/06/13 00:09:59;;;;;;;0.10;0.10;;;;;;;14.88;56.01;97486.59;5034186;28;20087;-71
2023/06/13 00:12:27;;;;;;;0.10;0.10;;;;;;;14.60;57.01;97485.25;5034165;28;20040;-71
2023/06/13 00:14:55;;;;;;;0.10;0.10;;;;;;;14.73;56.81;97489.69;5028753;28;20068;-71
2023/06/13 00:17:25;;;;;;;0.20;0.20;;;;;;;14.36;58.23;97486.06;5027358;28;20045;-71
2023/06/13 00:19:55;;;;;;;0.10;0.10;;;;;;;14.20;58.44;97486.66;5033673;28;20057;-71
2023/06/13 00:22:24;;;;;;;0.10;0.10;;;;;;;14.38;57.70;97491.22;5031971;28;20038;-71
2023/06/13 00:24:52;;;;;;;0.20;0.20;;;;;;;14.26;58.21;97488.44;5033291;28;20052;-71
2023/06/13 00:27:19;;;;;;;0.25;0.25;;;;;;;14.38;57.83;97485.88;5032094;28;20436;-71
2023/06/13 00:29:47;;;;;;;0.10;0.10;;;;;;;14.38;57.86;97477.81;5015406;28;20047;-70
2023/06/13 00:32:15;;;;;;;0.10;0.10;;;;;;;14.34;58.19;97486.28;5032481;28;20041;-71
2023/06/13 00:34:43;;;;;;;0.15;0.15;;;;;;;14.15;59.53;97481.94;5033350;28;20130;-71
2023/06/13 00:37:12;;;;;;;0.10;0.10;;;;;;;14.00;59.83;97481.47;5030861;28;20046;-72
2023/06/13 00:39:44;;;;;;;0.10;0.10;;;;;;;14.18;58.61;97480.69;5014817;28;20053;-72
2023/06/13 00:42:12;;;;;;;0.10;0.10;;;;;;;14.24;58.60;97474.41;5029728;28;20076;-71
2023/06/13 00:44:40;;;;;;;0.20;0.20;;;;;;;14.07;59.38;97478.72;5013102;28;20048;-72
2023/06/13 00:47:08;;;;;;;0.20;0.20;;;;;;;13.93;60.26;97484.19;5027125;28;20076;-72
2023/06/13 00:49:36;;;;;;;0.10;0.10;;;;;;;13.89;59.57;97474.94;5033070;28;20476;-72
2023/06/13 00:52:05;;;;;;;0.17;0.17;;;;;;;13.91;59.91;97480.09;5022003;28;20041;-71
2023/06/13 00:54:36;;;;;;;0.13;0.13;;;;;;;13.70;60.79;97478.59;5013195;28;20041;-72
2023/06/13 00:57:07;;;;;;;0.10;0.10;;;;;;;13.75;60.56;97475.25;5024127;28;20091;-72
2023/06/13 00:59:34;;;;;;;0.10;0.10;;;;;;;13.62;60.34;97469.97;5032564;28;20509;-72
2023/06/13 01:02:03;;;;;;;0.08;0.08;;;;;;;13.41;61.60;97471.94;5031581;28;20132;-72
2023/06/13 01:04:34;;;;;;;0.10;0.10;;;;;;;13.33;61.94;97463.34;5032918;28;20045;-72
2023/06/13 01:07:04;;;;;;;0.10;0.10;;;;;;;13.52;61.13;97465.06;5032035;28;20505;-72
2023/06/13 01:09:32;;;;;;;0.10;0.10;;;;;;;13.42;61.19;97460.19;5033240;28;20041;-72
2023/06/13 01:12:05;;;;;;;0.10;0.10;;;;;;;13.35;61.91;97461.28;5032152;28;20060;-72
2023/06/13 01:14:41;;;;;;;0.20;0.20;;;;;;;13.20;61.71;97459.69;5018774;28;20088;-73
2023/06/13 01:17:14;;;;;;;0.10;0.10;;;;;;;13.15;62.16;97461.38;5030429;28;20095;-72
2023/06/13 01:19:48;;;;;;;0.10;0.10;;;;;;;13.08;62.25;97455.22;5032538;28;20036;-72
2023/06/13 01:22:18;;;;;;;0.15;0.15;;;;;;;12.95;62.84;97452.59;5015497;28;20152;-72
2023/06/13 01:24:53;;;;;;;0.10;0.10;;;;;;;12.96;62.85;97454.25;5033740;28;20111;-72
2023/06/13 01:27:23;;;;;;;0.13;0.13;;;;;;;12.99;62.83;97451.94;5012843;28;20095;-73
2023/06/13 01:29:52;;;;;;;0.20;0.20;;;;;;;13.03;62.62;97457.69;5014254;28;20401;-71
2023/06/13 01:32:22;;;;;;;0.22;0.22;;;;;;;13.04;62.36;97449.47;5031143;28;20095;-72
2023/06/13 01:34:50;;;;;;;0.10;0.10;;;;;;;13.04;62.73;97443.28;5032239;28;20124;-72
2023/06/13 01:37:18;;;;;;;0.10;0.10;;;;;;;12.91;63.18;97441.47;5029304;28;20501;-71
2023/06/13 01:39:46;;;;;;;0.20;0.20;;;;;;;12.84;63.48;97446.03;5031711;28;20044;-72
2023/06/13 01:42:13;;;;;;;0.10;0.10;;;;;;;12.90;63.08;97441.69;5028227;28;20038;-71
2023/06/13 01:44:42;;;;;;;0.17;0.17;;;;;;;12.74;63.77;97438.47;5029736;28;20045;-71
2023/06/13 01:47:17;;;;;;;0.10;0.10;;;;;;;12.78;63.35;97453.06;5011000;28;20140;-72
2023/06/13 01:49:51;;;;;;;0.10;0.10;;;;;;;12.63;63.98;97449.84;5014372;28;20041;-72
2023/06/13 01:52:25;;;;;;;0.17;0.17;;;;;;;12.59;63.74;97440.56;5017447;28;20515;-71
2023/06/13 01:54:57;;;;;;;0.10;0.10;;;;;;;12.55;64.52;97444.72;5008743;28;20574;-71
2023/06/13 01:57:28;;;;;;;0.10;0.10;;;;;;;12.57;64.24;97437.28;5018558;28;20050;-71
2023/06/13 01:59:58;;;;;;;0.10;0.10;;;;;;;12.56;64.43;97438.34;5021771;28;20057;-71
2023/06/13 02:02:26;;;;;;;0.10;0.10;;;;;;;12.63;63.67;97441.81;5023978;28;20392;-71
2023/06/13 02:04:55;;;;;;;0.10;0.10;;;;;;;12.60;64.24;97436.03;5030224;28;20586;-71
2023/06/13 02:07:24;;;;;;;0.13;0.13;;;;;;;12.77;63.06;97432.66;5007734;28;20042;-71
2023/06/13 02:09:52;;;;;;;0.20;0.20;;;;;;;12.69;63.53;97432.91;5027169;28;20045;-70
2023/06/13 02:12:19;;;;;;;0.22;0.22;;;;;;;12.71;63.30;97430.84;5009390;28;20417;-71
2023/06/13 02:14:48;;;;;;;0.15;0.15;;;;;;;12.56;63.79;97432.97;5006104;28;20157;-71
2023/06/13 02:17:17;;;;;;;0.17;0.17;;;;;;;12.44;63.95;97432.81;5028302;28;20041;-71
2023/06/13 02:19:44;;;;;;;0.10;0.10;;;;;;;12.24;64.87;97433.88;5029328;28;20060;-71
2023/06/13 02:22:12;;;;;;;0.10;0.10;;;;;;;12.20;64.92;97438.00;5029282;28;20064;-71
2023/06/13 02:24:41;;;;;;;0.05;0.05;;;;;;;12.33;64.32;97435.31;5012878;28;20056;-71
2023/06/13 02:27:08;;;;;;;0.10;0.10;;;;;;;12.22;64.62;97430.59;5012302;28;20056;-71
2023/06/13 02:29:36;;;;;;;0.00;0.00;;;;;;;12.09;65.34;97434.94;5031650;28;20488;-72
2023/06/13 02:32:05;;;;;;;0.30;0.30;;;;;;;12.03;65.67;97430.41;5023427;28;20049;-71
2023/06/13 02:34:34;;;;;;;0.10;0.10;;;;;;;12.30;64.10;97431.19;5030545;28;20044;-71
2023/06/13 02:37:02;;;;;;;0.17;0.17;;;;;;;12.04;65.13;97433.91;5029367;28;20038;-71
2023/06/13 02:39:29;;;;;;;0.10;0.10;;;;;;;11.93;65.58;97430.03;5013724;28;20084;-72
2023/06/13 02:41:57;;;;;;;0.10;0.10;;;;;;;11.88;65.93;97431.66;5010494;28;20057;-71
2023/06/13 02:44:24;;;;;;;0.10;0.10;;;;;;;11.72;66.21;97432.88;5000683;28;20120;-71
2023/06/13 02:46:52;;;;;;;0.10;0.10;;;;;;;11.70;66.28;97435.75;5027399;28;20473;-72
2023/06/13 02:49:19;;;;;;;0.20;0.20;;;;;;;11.58;66.76;97436.56;5025362;28;20080;-73
2023/06/13 02:51:50;;;;;;;0.10;0.10;;;;;;;11.71;66.09;97441.91;5007490;28;20045;-72
2023/06/13 02:54:17;;;;;;;0.13;0.13;;;;;;;11.62;66.36;97430.63;4997027;28;20382;-72
2023/06/13 02:56:45;;;;;;;0.20;0.20;;;;;;;11.64;66.07;97433.88;5000529;28;20069;-72
2023/06/13 02:59:13;;;;;;;0.20;0.20;;;;;;;11.47;66.62;97431.81;5012734;28;20494;-72
2023/06/13 03:01:40;;;;;;;0.20;0.20;;;;;;;11.36;67.08;97434.06;5017790;28;20108;-72
2023/06/13 03:04:11;;;;;;;0.10;0.10;;;;;;;11.31;67.22;97441.88;4988712;28;21770;-71
2023/06/13 03:06:40;;;;;;;0.10;0.10;;;;;;;11.31;67.15;97433.03;4998244;28;20069;-72
2023/06/13 03:09:12;;;;;;;;;;;;;;;11.38;66.87;97431.19;5007280;28;20125;-72
2023/06/13 03:11:41;;;;;;;0.20;0.20;;;;;;;11.42;66.53;97431.63;4998202;28;20288;-72
2023/06/13 03:14:08;;;;;;;0.20;0.20;;;;;;;11.42;66.91;97432.41;5012007;28;20041;-72
2023/06/13 03:16:36;;;;;;;0.10;0.10;;;;;;;11.31;67.06;97435.72;4997791;28;20038;-72
2023/06/13 03:19:05;;;;;;;0.15;0.15;;;;;;;11.29;67.22;97430.56;5009389;28;20133;-72
2023/06/13 03:21:32;;;;;;;0.10;0.10;;;;;;;11.36;66.90;97447.44;4996488;28;20596;-71
2023/06/13 03:24:00;;;;;;;0.30;0.30;;;;;;;11.36;66.57;97444.75;5001592;28;20135;-71
2023/06/13 03:26:37;;;;;;;0.10;0.10;;;;;;;11.35;66.73;97439.59;4998421;28;20034;-71
2023/06/13 03:29:08;;;;;;;0.20;0.20;;;;;;;11.19;67.38;97437.34;5000260;28;20045;-71
2023/06/13 03:31:36;;;;;;;0.13;0.13;;;;;;;11.18;67.49;97435.69;4995719;28;20088;-71
2023/06/13 03:34:03;;;;;;;0.10;0.10;;;;;;;11.18;67.31;97433.84;5003403;28;20075;-71
2023/06/13 03:36:33;;;;;;;0.10;0.10;;;;;;;11.34;66.69;97437.97;4991165;28;20112;-71
2023/06/13 03:39:02;;;;;;;0.20;0.20;;;;;;;11.39;66.48;97441.69;5001250;28;20046;-71
2023/06/13 03:41:32;;;;;;;0.10;0.10;;;;;;;11.44;66.27;97445.56;4993969;28;20123;-71
2023/06/13 03:44:00;;;;;;;0.10;0.10;;;;;;;11.28;66.73;97444.94;5008180;28;20490;-72
2023/06/13 03:46:28;;;;;;;0.15;0.15;;;;;;;11.28;67.02;97442.28;5001983;28;20478;-72
2023/06/13 03:48:55;;;;;;;0.10;0.10;;;;;;;11.21;67.27;97449.44;5002000;28;20108;-72
2023/06/13 03:51:23;;;;;;;0.10;0.10;;;;;;;11.32;66.82;97454.19;5010466;28;20042;-72
2023/06/13 03:53:51;;;;;;;0.15;0.15;;;;;;;11.39;66.37;97447.03;5010614;28;20068;-72
2023/06/13 03:56:18;;;;;;;0.10;0.10;;;;;;;11.25;67.15;97442.69;5012280;28;20041;-72
2023/06/13 03:58:47;;;;;;;0.30;0.30;;;;;;;11.24;66.91;97449.03;5000853;28;20072;-73
2023/06/13 04:01:16;;;;;;;0.20;0.20;;;;;;;11.23;67.10;97444.72;5022960;28;20456;-72
2023/06/13 04:03:44;;;;;;;0.20;0.20;;;;;;;11.46;65.87;97446.22;4999004;28;20058;-72
2023/06/13 04:06:12;;;;;;;0.13;0.13;;;;;;;11.17;67.62;97458.06;5020043;28;20033;-73
2023/06/13 04:08:40;;;;;;;0.20;0.20;;;;;;;11.31;67.19;97457.91;5015894;28;20041;-71
2023/06/13 04:11:08;;;;;;;0.20;0.20;;;;;;;11.49;66.37;97448.47;5025382;28;20046;-70
2023/06/13 04:13:35;;;;;;;0.10;0.10;;;;;;;11.40;66.84;97451.34;5023860;28;20041;-72
2023/06/13 04:16:04;;;;;;;0.10;0.10;;;;;;;11.44;66.97;97454.41;5010910;28;20146;-72
2023/06/13 04:18:33;;;;;;;0.20;0.20;;;;;;;11.67;65.93;97443.34;5021867;28;20050;-70
2023/06/13 04:21:01;;;;;;;0.10;0.10;;;;;;;11.63;66.19;97453.63;5009455;28;20054;-72
2023/06/13 04:23:29;;;;;;;0.10;0.10;;;;;;;11.62;66.18;97449.31;5005233;28;20500;-71
2023/06/13 04:25:57;;;;;;;0.00;0.00;;;;;;;11.63;66.18;97450.94;5009011;28;20053;-72
2023/06/13 04:28:25;;;;;;;0.20;0.20;;;;;;;11.90;65.30;97448.31;5022049;28;20108;-71
2023/06/13 04:30:53;;;;;;;0.00;0.00;;;;;;;11.84;65.38;97444.59;5011629;28;20649;-71
2023/06/13 04:33:22;;;;;;;0.10;0.10;;;;;;;11.72;66.09;97451.59;5022063;28;20052;-73
2023/06/13 04:35:50;;;;;;;0.10;0.10;;;;;;;11.67;66.23;97451.38;5020920;28;20050;-71
2023/06/13 04:38:20;;;;;;;0.10;0.10;;;;;;;11.76;65.81;97445.63;5020782;28;20509;-71
2023/06/13 04:40:47;;;;;;;0.10;0.10;;;;;;;11.77;65.91;97435.78;5027259;28;20052;-71
2023/06/13 04:43:15;;;;;;;0.20;0.20;;;;;;;11.98;65.40;97451.59;5018291;28;20492;-71
2023/06/13 04:45:43;;;;;;;0.10;0.10;;;;;;;11.81;65.51;97453.06;5013982;28;20096;-71
2023/06/13 04:48:11;;;;;;;0.15;0.15;;;;;;;11.88;65.21;97443.16;5028699;28;20059;-71
2023/06/13 04:50:41;;;;;;;0.10;0.10;;;;;;;11.86;65.27;97445.22;5032354;28;20049;-70
2023/06/13 04:53:11;;;;;;;0.10;0.10;;;;;;;11.81;65.44;97449.56;5028437;28;20048;-72
2023/06/13 04:55:39;;;;;;;0.20;0.20;;;;;;;11.82;65.42;97445.84;5020337;28;20042;-71
2023/06/13 04:58:07;;;;;;;0.20;0.20;;;;;;;11.87;65.37;97446.06;5028538;28;20045;-71
2023/06/13 05:00:34;;;;;;;0.10;0.10;;;;;;;12.03;64.84;97448.31;5029760;28;20045;-72
2023/06/13 05:03:02;;;;;;;0.10;0.10;;;;;;;11.97;64.70;97441.09;5029401;28;20056;-72
2023/06/13 05:05:30;;;;;;;0.10;0.10;;;;;;;11.97;64.94;97441.94;5017109;28;20494;-72
2023/06/13 05:08:00;;;;;;;0.00;0.00;;;;;;;12.00;65.05;97454.06;5028762;28;20049;-72
2023/06/13 05:10:28;;;;;;;0.20;0.20;;;;;;;12.02;64.96;97441.31;5035765;28;20069;-72
2023/06/13 05:12:56;;;;;;;0.10;0.10;;;;;;;12.15;64.59;97443.97;5030436;28;20076;-72
2023/06/13 05:15:24;;;;;;;0.17;0.17;;;;;;;12.30;64.50;97443.75;5036800;28;20046;-72
2023/06/13 05:17:54;;;;;;;0.10;0.10;;;;;;;12.38;64.17;97454.22;5012089;28;20116;-72
2023/06/13 05:20:26;;;;;;;0.10;0.10;;;;;;;12.53;63.98;97432.56;5026408;28;20527;-71
2023/06/13 05:22:54;;;;;;;0.10;0.10;;;;;;;12.63;63.66;97430.25;5031255;28;20059;-71
2023/06/13 05:25:23;;;;;;;0.13;0.13;;;;;;;12.71;63.58;97435.38;5027358;28;20045;-71
2023/06/13 05:27:55;;;;;;;0.20;0.20;;;;;;;12.78;63.11;97425.44;5027929;28;20059;-71
2023/06/13 05:30:22;;;;;;;0.13;0.13;;;;;;;12.88;63.04;97433.84;5033445;28;20500;-71
2023/06/13 05:32:50;;;;;;;0.10;0.10;;;;;;;12.97;62.85;97421.88;5029248;28;20057;-72
2023/06/13 05:35:18;;;;;;;0.10;0.10;;;;;;;13.09;62.63;97422.81;5032006;28;20499;-72
2023/06/13 05:37:46;;;;;;;0.10;0.10;;;;;;;13.14;62.17;97432.94;5028674;28;20236;-72
2023/06/13 05:40:14;;;;;;;0.13;0.13;;;;;;;13.19;61.82;97419.72;5035124;28;20413;-72
2023/06/13 05:42:43;;;;;;;0.10;0.10;;;;;;;13.25;61.72;97416.19;5024693;28;20052;-72
2023/06/13 05:45:10;;;;;;;0.10;0.10;;;;;;;13.38;61.37;97418.78;5029794;28;20120;-71
2023/06/13 05:47:38;;;;;;;0.20;0.20;;;;;;;13.52;61.02;97423.00;5026240;28;20037;-71
2023/06/13 05:50:06;;;;;;;0.13;0.13;;;;;;;13.55;60.59;97419.88;5032252;28;20091;-72
2023/06/13 05:52:34;;;;;;;0.10;0.10;;;;;;;13.56;60.61;97418.84;5027940;28;20048;-71
2023/06/13 05:55:04;;;;;;;0.10;0.10;;;;;;;13.59;60.75;97420.28;5025431;28;20041;-72
2023/06/13 05:57:38;;;;;;;0.10;0.10;;;;;;;13.68;60.01;97410.09;5027520;28;20038;-71
2023/06/13 06:00:11;;;;;;;0.10;0.10;;;;;;;13.69;60.69;97417.13;5006632;28;20142;-71
2023/06/13 06:02:41;;;;;;;0.10;0.10;;;;;;;13.84;60.38;97414.91;5027541;28;20504;-72
2023/06/13 06:05:09;;;;;;;0.10;0.10;;;;;;;13.90;60.17;97420.25;5027761;28;20045;-72
2023/06/13 06:07:37;;;;;;;0.10;0.10;;;;;;;14.02;59.67;97417.63;5026424;28;20052;-72
2023/06/13 06:10:06;;;;;;;0.10;0.10;;;;;;;14.11;59.97;97416.31;5023706;28;20052;-72
2023/06/13 06:12:33;;;;;;;0.10;0.10;;;;;;;14.22;59.99;97415.56;5025614;28;20386;-72
2023/06/13 06:15:01;;;;;;;0.10;0.10;;;;;;;14.32;59.89;97415.09;5019511;28;20041;-72
2023/06/13 06:17:30;;;;;;;0.20;0.20;;;;;;;14.46;59.82;97413.09;5025509;28;20033;-72
2023/06/13 06:19:58;;;;;;;0.20;0.20;;;;;;;14.55;59.68;97409.06;5026580;28;20049;-72
2023/06/13 06:22:25;;;;;;;0.20;0.20;;;;;;;14.72;59.77;97406.59;5023503;28;20029;-72
2023/06/13 06:24:53;;;;;;;0.15;0.15;;;;;;;14.77;59.04;97407.56;5025711;28;20042;-72
2023/06/13 06:27:21;;;;;;;0.13;0.13;;;;;;;14.88;59.02;97404.09;5023491;28;20069;-72
2023/06/13 06:29:48;;;;;;;0.10;0.10;;;;;;;15.08;58.15;97409.22;5027050;28;20081;-72
2023/06/13 06:32:16;;;;;;;0.10;0.10;;;;;;;15.20;58.52;97420.03;5024372;28;20511;-72
2023/06/13 06:34:44;;;;;;;0.10;0.10;;;;;;;15.32;58.08;97415.50;5027627;28;20050;-72
2023/06/13 06:37:13;;;;;;;0.10;0.10;;;;;;;15.38;57.00;97410.03;5023214;28;20099;-73
2023/06/13 06:39:40;;;;;;;0.10;0.10;;;;;;;15.51;56.80;97410.88;5032101;28;20507;-73
2023/06/13 06:42:08;;;;;;;0.10;0.10;;;;;;;15.69;55.94;97414.34;5030104;28;20401;-72
2023/06/13 06:44:45;;;;;;;0.10;0.10;;;;;;;15.79;55.49;97413.75;5015907;28;20045;-72
2023/06/13 06:47:13;;;;;;;0.10;0.10;;;;;;;15.92;55.67;97408.16;5028436;28;20111;-72
2023/06/13 06:49:41;;;;;;;0.10;0.10;;;;;;;16.15;54.00;97407.38;5030031;28;20124;-72
2023/06/13 06:52:10;;;;;;;0.00;0.00;;;;;;;16.30;53.49;97406.91;5025022;28;20056;-72
2023/06/13 06:54:37;;;;;;;0.10;0.10;;;;;;;16.41;53.57;97409.56;5027030;28;20053;-72
2023/06/13 06:57:06;;;;;;;0.20;0.20;;;;;;;16.59;53.41;97399.72;5026018;28;20042;-73
2023/06/13 06:59:33;;;;;;;0.25;0.25;;;;;;;16.77;51.62;97408.47;5024436;28;20113;-72
2023/06/13 07:02:01;;;;;;;0.10;0.10;;;;;;;16.86;51.17;97403.53;5024432;28;20398;-72
2023/06/13 07:04:29;;;;;;;0.10;0.10;;;;;;;16.99;51.75;97405.94;5016667;28;20041;-72
2023/06/13 07:06:56;;;;;;;0.05;0.05;;;;;;;16.96;50.08;97400.22;5028920;28;20049;-72
2023/06/13 07:09:25;;;;;;;0.10;0.10;;;;;;;17.04;49.19;97407.91;5018091;28;20064;-72
2023/06/13 07:11:56;;;;;;;0.10;0.10;;;;;;;17.27;49.75;97404.31;5027790;28;20690;-72
2023/06/13 07:14:25;;;;;;;0.13;0.13;;;;;;;17.55;49.06;97404.25;5024003;28;20041;-72
2023/06/13 07:16:54;;;;;;;0.10;0.10;;;;;;;17.37;47.74;97404.50;5026633;28;20049;-73
2023/06/13 07:19:21;;;;;;;0.10;0.10;;;;;;;17.49;47.06;97395.28;5023270;28;20052;-73
2023/06/13 07:21:49;;;;;;;0.10;0.10;;;;;;;17.76;45.54;97398.19;5021776;28;20045;-73
2023/06/13 07:24:17;;;;;;;0.10;0.10;;;;;;;17.91;44.34;97409.25;5024608;28;20493;-73
2023/06/13 07:26:46;;;;;;;0.10;0.10;;;;;;;18.10;43.97;97398.16;5024867;28;20046;-73
2023/06/13 07:29:15;;;;;;;0.13;0.13;;;;;;;18.36;45.21;97402.09;5026250;28;20735;-74
2023/06/13 07:31:42;;;;;;;0.00;0.00;;;;;;;18.60;44.89;97398.91;5026170;28;20038;-73
2023/06/13 07:34:10;;;;;;;0.15;0.15;;;;;;;18.78;43.92;97394.28;5023059;28;20456;-74
2023/06/13 07:36:58;;;;;;;0.08;0.08;;;;;;;19.25;43.01;97394.53;5024040;28;20054;-73
2023/06/13 07:39:26;;;;;;;0.17;0.10;;;;;;;19.52;42.56;97400.00;5023799;28;20535;-74
2023/06/13 07:41:54;;;;;;;0.17;0.17;;;;;;;19.56;41.38;97390.28;5027960;28;20576;-74
2023/06/13 07:44:22;;;;;;;0.10;0.10;;;;;;;19.85;41.74;97390.78;5021393;28;20048;-74
2023/06/13 07:46:50;;;;;;;0.00;0.00;;;;;;;20.11;40.50;97395.34;5010949;28;20497;-73
2023/06/13 07:49:17;;;;;;;0.10;0.10;;;;;;;20.25;40.80;97399.22;5023632;28;20056;-73
2023/06/13 07:51:45;;;;;;;0.10;0.10;;;;;;;20.50;39.68;97396.69;5026393;28;20116;-73
2023/06/13 07:54:12;;;;;;;0.10;0.10;;;;;;;20.63;39.93;97398.13;5019107;28;20046;-74
2023/06/13 07:56:40;;;;;;;0.00;0.00;;;;;;;20.85;38.50;97387.94;5028073;28;20132;-74
2023/06/13 07:59:09;;;;;;;0.10;0.10;;;;;;;21.11;38.03;97385.28;5021149;28;20112;-74
2023/06/13 08:01:36;;;;;;;0.10;0.10;;;;;;;21.09;37.70;97376.59;5019924;28;20056;-74
2023/06/13 08:04:04;;;;;;;0.10;0.10;;;;;;;21.29;37.49;97371.22;5020962;28;20057;-73
2023/06/13 08:06:32;;;;;;;0.10;0.10;;;;;;;21.57;37.41;97376.19;5029371;28;20053;-73
2023/06/13 08:09:00;;;;;;;0.00;0.00;;;;;;;21.76;35.29;97373.75;5025954;28;20054;-73
2023/06/13 08:11:27;;;;;;;0.00;0.00;;;;;;;22.01;35.79;97372.94;5031958;28;20120;-74
2023/06/13 08:13:55;;;;;;;0.13;0.13;;;;;;;22.28;34.57;97365.31;5031028;28;20734;-74
2023/06/13 08:16:24;;;;;;;0.05;0.05;;;;;;;22.48;33.38;97363.63;5030126;28;20045;-74
2023/06/13 08:18:52;;;;;;;0.05;0.05;;;;;;;22.64;33.91;97359.75;5025051;28;20042;-74
2023/06/13 08:21:19;;;;;;;0.00;0.00;;;;;;;22.90;33.69;97365.94;5031875;28;20570;-74
2023/06/13 08:23:47;;;;;;;0.10;0.10;;;;;;;22.89;33.83;97359.69;5037319;28;20053;-74
2023/06/13 08:26:15;;;;;;;0.00;0.00;;;;;;;22.90;33.61;97364.03;5030709;28;20041;-74
2023/06/13 08:28:43;;;;;;;0.10;0.10;;;;;;;23.11;33.54;97363.94;5032190;28;20527;-74
2023/06/13 08:31:12;;;;;;;0.00;0.00;;;;;;;23.23;34.11;97365.22;5032227;28;20049;-74
2023/06/13 08:34:04;;;;;;;0.00;0.00;;;;;;;23.38;32.98;97364.31;5012494;28;20049;-73
2023/06/13 08:36:38;;;;;;;0.10;0.10;;;;;;;23.65;33.39;97364.72;5035216;28;20056;-72
2023/06/13 08:39:06;;;;;;;0.10;0.10;;;;;;;23.50;32.05;97359.34;5028969;28;20042;-72
2023/06/13 08:41:35;;;;;;;0.10;0.10;;;;;;;23.61;31.36;97360.09;5036590;28;20044;-73
2023/06/13 08:44:02;;;;;;;0.00;0.00;;;;;;;23.88;31.36;97365.09;5032228;28;20405;-73
2023/06/13 08:46:30;;;;;;;0.10;0.10;;;;;;;23.98;29.45;97356.81;5031472;28;20087;-72
2023/06/13 08:48:58;;;;;;;0.08;0.08;;;;;;;24.14;29.34;97363.75;5013581;28;20046;-73
2023/06/13 08:51:30;;;;;;;0.10;0.10;;;;;;;24.30;28.34;97354.31;5025216;28;20049;-73
2023/06/13 08:53:59;;;;;;;;;;;;;;;24.20;29.86;97354.38;5026946;28;20476;-73
2023/06/13 08:56:28;;;;;;;0.10;0.10;;;;;;;24.40;27.68;97358.84;5030392;28;19929;-73
2023/06/13 08:58:58;;;;;;;0.00;0.00;;;;;;;24.58;26.63;97355.41;5031480;28;20037;-73
2023/06/13 09:01:27;;;;;;;0.00;0.00;;;;;;;24.80;25.65;97358.41;5028498;28;20096;-73
2023/06/13 09:03:56;;;;;;;0.00;0.00;;;;;;;24.99;24.89;97346.75;5028493;28;20050;-73
2023/06/13 09:06:25;;;;;;;0.00;0.00;;;;;;;25.01;25.50;97345.34;5027368;28;20104;-73
2023/06/13 09:08:57;;;;;;;0.00;0.00;;;;;;;25.08;25.51;97332.13;5030509;28;20148;-74
2023/06/13 09:11:24;;;;;;;0.10;0.10;;;;;;;25.11;24.97;97334.28;5028236;28;21260;-73
2023/06/13 09:13:52;;;;;;;0.05;0.05;;;;;;;25.17;25.13;97346.75;5034371;28;20132;-73
2023/06/13 09:16:20;;;;;;;0.08;0.08;;;;;;;25.10;24.09;97331.84;5027992;28;20049;-72
2023/06/13 09:18:49;;;;;;;0.03;0.03;;;;;;;24.77;25.02;97348.06;5028381;28;20120;-73
2023/06/13 09:21:20;;;;;;;0.00;0.00;;;;;;;24.95;25.82;97338.31;5011995;28;20061;-72
2023/06/13 09:23:50;;;;;;;0.10;0.10;;;;;;;24.87;25.33;97326.09;5027142;28;20045;-72
2023/06/13 09:26:19;;;;;;;0.05;0.05;;;;;;;24.67;25.44;97336.47;5023185;28;20079;-71
2023/06/13 09:28:47;;;;;;;0.10;0.10;;;;;;;24.74;25.77;97339.63;5025951;28;20046;-72
2023/06/13 09:31:15;;;;;;;0.00;0.00;;;;;;;24.83;25.11;97332.41;5030104;28;20077;-72
2023/06/13 09:33:45;;;;;;;0.00;0.00;;;;;;;24.92;24.97;97327.16;5024107;28;20052;-72
2023/06/13 09:36:13;;;;;;;0.08;0.08;;;;;;;24.72;25.62;97331.72;5030086;28;20410;-72
2023/06/13 09:38:42;;;;;;;0.03;0.03;;;;;;;25.05;25.61;97320.97;5022189;28;20041;-72
2023/06/13 09:41:12;;;;;;;0.00;0.00;;;;;;;25.32;25.03;97317.59;5031597;28;20056;-72
2023/06/13 09:43:42;;;;;;;0.00;0.00;;;;;;;25.23;25.01;97310.03;5030227;28;20044;-72
2023/06/13 09:46:10;;;;;;;0.10;0.10;;;;;;;25.43;24.81;97311.69;5029433;28;20038;-72
2023/06/13 09:48:38;;;;;;;0.10;0.10;;;;;;;25.80;24.15;97319.00;5023185;28;20046;-72
2023/06/13 09:51:06;;;;;;;0.10;0.10;;;;;;;25.87;23.40;97310.41;5024298;28;20497;-72
2023/06/13 09:53:33;;;;;;;0.00;0.00;;;;;;;25.88;23.67;97310.13;5028567;28;20051;-72
2023/06/13 09:56:01;;;;;;;0.00;0.00;;;;;;;26.12;23.15;97312.72;5021967;28;20044;-72
2023/06/13 09:58:35;;;;;;;0.10;0.10;;;;;;;25.88;23.32;97299.19;5018861;28;20033;-72
2023/06/13 10:01:04;;;;;;;0.00;0.00;;;;;;;26.18;24.07;97308.75;5031601;28;20049;-72
2023/06/13 10:03:32;;;;;;;0.00;0.00;;;;;;;26.43;23.68;97312.16;5039078;28;20124;-72
2023/06/13 10:06:01;;;;;;;0.00;0.00;;;;;;;26.46;22.97;97306.91;5032460;28;20064;-72
2023/06/13 10:08:33;;;;;;;0.00;0.00;;;;;;;26.48;22.87;97296.44;5040176;28;20092;-72
2023/06/13 10:11:03;;;;;;;0.05;0.05;;;;;;;26.34;22.61;97289.34;5028285;28;20504;-71
2023/06/13 10:13:33;;;;;;;0.00;0.00;;;;;;;26.44;22.75;97287.22;5025446;28;20052;-72
2023/06/13 10:16:01;;;;;;;0.00;0.00;;;;;;;26.34;23.49;97300.28;5028823;28;20045;-71
2023/06/13 10:18:35;;;;;;;0.00;0.00;;;;;;;26.66;22.12;97305.69;5025465;28;20045;-71
2023/06/13 10:21:03;;;;;;;0.00;0.00;;;;;;;26.85;21.75;97300.06;5027764;28;20052;-72
2023/06/13 10:23:34;;;;;;;0.00;0.00;;;;;;;26.95;21.99;97292.47;5034622;28;20056;-71
2023/06/13 10:26:08;;;;;;;0.00;0.00;;;;;;;26.98;22.17;97288.31;5024963;28;20034;-71
2023/06/13 10:28:49;;;;;;;0.10;0.00;;;;;;;26.89;21.89;97287.38;5031293;28;20044;-72
2023/06/13 10:31:26;;;;;;;0.00;0.00;;;;;;;27.08;21.88;97292.75;5021961;28;20044;-72
2023/06/13 10:34:15;;;;;;;0.10;0.10;;;;;;;27.09;21.95;97286.16;5034144;28;20115;-72
2023/06/13 10:37:03;;;;;;;0.00;0.00;;;;;;;27.37;21.72;97277.53;5024876;28;20151;-72
2023/06/13 10:39:46;;;;;;;0.00;0.00;;;;;;;27.55;22.23;97292.19;5033713;28;20103;-72
2023/06/13 10:42:19;;;;;;;0.00;0.00;;;;;;;27.67;21.34;97283.41;5024660;28;20041;-72
2023/06/13 10:44:51;;;;;;;0.03;0.03;;;;;;;27.53;21.32;97285.38;5029346;28;20051;-72
2023/06/13 10:47:19;;;;;;;0.00;0.00;;;;;;;27.31;21.82;97272.44;5030055;28;20060;-72
2023/06/13 10:49:51;;;;;;;0.00;0.00;;;;;;;27.48;21.82;97286.31;5023576;28;20046;-71
2023/06/13 10:52:20;;;;;;;0.00;0.00;;;;;;;27.61;21.50;97285.47;5030624;28;20053;-72
2023/06/13 10:54:53;;;;;;;0.00;0.00;;;;;;;27.69;21.05;97278.44;5030925;28;20044;-71
2023/06/13 10:57:21;;;;;;;0.00;0.00;;;;;;;27.48;20.94;97263.56;5029049;28;20417;-72
2023/06/13 10:59:49;;;;;;;0.00;0.00;;;;;;;27.09;21.80;97275.19;5025658;28;20121;-72
2023/06/13 11:02:18;;;;;;;0.00;0.00;;;;;;;27.41;21.89;97269.47;5031526;28;20497;-72
2023/06/13 11:04:51;;;;;;;0.00;0.00;;;;;;;27.62;21.34;97272.56;5025399;28;20045;-71
2023/06/13 11:07:26;;;;;;;0.08;0.00;;;;;;;27.68;21.24;97274.88;5019214;28;20038;-72
2023/06/13 11:10:11;;;;;;;0.00;0.00;;;;;;;27.69;20.51;97267.47;5026344;28;20042;-72
2023/06/13 11:12:40;;;;;;;0.00;0.00;;;;;;;27.17;21.18;97258.81;5025532;28;20393;-72
2023/06/13 11:15:22;;;;;;;0.00;0.00;;;;;;;27.25;21.00;97251.78;5025632;28;20134;-72
2023/06/13 11:18:27;;;;;;;0.00;0.00;;;;;;;27.36;21.37;97251.22;5025131;28;20091;-72
2023/06/13 11:20:57;;;;;;;0.00;0.00;;;;;;;27.84;21.35;97255.25;5026745;28;20060;-72
2023/06/13 11:23:25;;;;;;;0.00;0.00;;;;;;;27.88;20.90;97254.31;5021990;28;20501;-72
2023/06/13 11:25:53;;;;;;;0.00;0.00;;;;;;;27.85;20.67;97251.41;5027479;28;20131;-72
2023/06/13 11:28:21;;;;;;;0.00;0.00;;;;;;;26.83;21.32;97244.78;5026146;28;20041;-72
2023/06/13 11:30:48;;;;;;;0.00;0.00;;;;;;;27.29;21.22;97237.16;5026920;28;20125;-71
2023/06/13 11:33:17;;;;;;;0.00;0.00;;;;;;;27.48;20.92;97236.16;5025273;28;20112;-72
2023/06/13 11:35:49;;;;;;;0.00;0.00;;;;;;;27.33;20.57;97235.38;5025295;28;20053;-72
2023/06/13 11:38:22;;;;;;;0.00;0.00;;;;;;;27.23;21.56;97224.66;5028670;28;20041;-72
2023/06/13 11:40:52;;;;;;;0.00;0.00;;;;;;;27.66;21.43;97225.00;5028879;28;20045;-72
2023/06/13 11:43:20;;;;;;;0.00;0.00;;;;;;;27.81;21.63;97220.25;5032415;28;20037;-72